Time;durP1;ratioP1;P1;durP2;ratioP2;P2;SDS_P1;SDS_P2;PMS_P1;PMS_P2;Temp;Humidity;BMP_temperature;BMP_pressure;BME280_temperature;BME280_humidity;BME280_pressure;Samples;Min_cycle;Max_cycle;Signal;HPM_P1;HPM_P2
2022/05/03 00:01:02;;;;;;;13.97;11.93;;;13.30;99.90;;;;;;5068350;28;20461;-72
2022/05/03 00:03:37;;;;;;;13.90;11.13;;;13.10;99.90;;;;;;5069737;28;20414;-72
2022/05/03 00:06:16;;;;;;;14.37;10.60;;;13.00;99.90;;;;;;5060541;28;20418;-71
2022/05/03 00:08:50;;;;;;;12.43;10.80;;;12.90;99.90;;;;;;5069786;28;20734;-72
2022/05/03 00:11:30;;;;;;;15.00;11.17;;;12.90;99.90;;;;;;5068257;28;20430;-72
2022/05/03 00:14:30;;;;;;;11.97;10.57;;;12.80;99.90;;;;;;5067124;28;20945;-72
2022/05/03 00:16:56;;;;;;;11.90;10.70;;;12.70;99.90;;;;;;5068529;28;20407;-72
2022/05/03 00:19:22;;;;;;;13.93;10.37;;;12.70;99.90;;;;;;5067137;28;20983;-71
2022/05/03 00:21:48;;;;;;;12.00;10.80;;;12.70;99.90;;;;;;5067512;28;20473;-72
2022/05/03 00:24:16;;;;;;;15.33;11.77;;;12.60;99.90;;;;;;5069225;28;20207;-72
2022/05/03 00:26:42;;;;;;;11.83;10.63;;;12.60;99.90;;;;;;5068119;28;20539;-71
2022/05/03 00:29:10;;;;;;;16.83;10.80;;;12.50;99.90;;;;;;5069670;28;20485;-71
2022/05/03 00:31:36;;;;;;;12.03;10.80;;;12.60;99.90;;;;;;5067042;28;20492;-72
2022/05/03 00:34:01;;;;;;;11.70;10.10;;;12.70;99.90;;;;;;5069088;28;20463;-70
2022/05/03 00:36:27;;;;;;;12.67;10.80;;;12.60;99.90;;;;;;5068332;28;20430;-72
2022/05/03 00:38:52;;;;;;;15.53;9.67;;;12.70;99.90;;;;;;5065072;28;20415;-71
2022/05/03 00:41:47;;;;;;;11.47;10.27;;;12.70;99.90;;;;;;5060936;28;20230;-71
2022/05/03 00:44:56;;;;;;;13.07;10.83;;;12.60;99.90;;;;;;5058124;28;20662;-72
2022/05/03 00:47:53;;;;;;;12.17;10.73;;;12.60;99.90;;;;;;5063162;28;20464;-71
2022/05/03 00:50:39;;;;;;;17.30;11.10;;;12.50;99.90;;;;;;5061816;28;20435;-72
2022/05/03 00:53:26;;;;;;;11.80;10.30;;;12.40;99.90;;;;;;5066482;28;20971;-72
2022/05/03 00:56:16;;;;;;;12.67;10.50;;;12.30;99.90;;;;;;5067456;28;20982;-71
2022/05/03 00:59:01;;;;;;;16.20;10.20;;;12.20;99.90;;;;;;5066119;28;20474;-72
2022/05/03 01:01:48;;;;;;;11.30;10.10;;;12.10;99.90;;;;;;5056629;28;20430;-71
2022/05/03 01:04:25;;;;;;;12.53;10.10;;;12.10;99.90;;;;;;5072921;28;20572;-72
2022/05/03 01:06:54;;;;;;;11.23;9.97;;;12.00;99.90;;;;;;5066535;28;20575;-72
2022/05/03 01:09:32;;;;;;;12.83;10.70;;;12.00;99.90;;;;;;5067465;28;20853;-71
2022/05/03 01:12:12;;;;;;;12.97;10.33;;;12.10;99.90;;;;;;5066867;28;20526;-71
2022/05/03 01:15:03;;;;;;;12.07;10.10;;;12.10;99.90;;;;;;5064245;28;20446;-71
2022/05/03 01:17:51;;;;;;;13.43;10.63;;;12.10;99.90;;;;;;5067058;28;20902;-71
2022/05/03 01:20:40;;;;;;;11.27;10.03;;;12.10;99.90;;;;;;5062332;28;20896;-72
2022/05/03 01:23:40;;;;;;;13.07;10.53;;;12.00;99.90;;;;;;5066036;28;20422;-71
2022/05/03 01:26:31;;;;;;;15.63;11.63;;;11.90;99.90;;;;;;5062802;28;20966;-72
2022/05/03 01:29:22;;;;;;;14.90;12.00;;;11.70;99.90;;;;;;5066290;28;20477;-72
2022/05/03 01:31:53;;;;;;;14.20;11.90;;;11.70;99.90;;;;;;5067422;28;20501;-71
2022/05/03 01:34:19;;;;;;;17.10;12.70;;;11.60;99.90;;;;;;5066149;28;20494;-71
2022/05/03 01:37:00;;;;;;;14.23;12.20;;;11.50;99.90;;;;;;5067388;28;20497;-71
2022/05/03 01:39:52;;;;;;;13.73;11.70;;;11.50;99.90;;;;;;5066646;28;20940;-71
2022/05/03 01:42:33;;;;;;;12.77;11.40;;;11.50;99.90;;;;;;5065465;28;20905;-71
2022/05/03 01:45:03;;;;;;;14.50;11.60;;;11.40;99.90;;;;;;5066096;28;20546;-72
2022/05/03 01:47:44;;;;;;;13.30;11.90;;;11.50;99.90;;;;;;5065694;28;20486;-71
2022/05/03 01:50:31;;;;;;;16.63;11.20;;;11.40;99.90;;;;;;5064950;28;20439;-71
2022/05/03 01:53:19;;;;;;;13.97;11.53;;;11.40;99.90;;;;;;5063744;28;20433;-70
2022/05/03 01:56:22;;;;;;;13.20;11.67;;;11.30;99.90;;;;;;5061207;28;20431;-72
2022/05/03 01:59:21;;;;;;;13.13;11.60;;;11.30;99.90;;;;;;5059931;28;20940;-72
2022/05/03 02:01:53;;;;;;;14.93;11.80;;;11.30;99.90;;;;;;5067060;28;20405;-71
2022/05/03 02:04:35;;;;;;;13.13;11.23;;;11.20;99.90;;;;;;5066136;28;20568;-71
2022/05/03 02:07:18;;;;;;;15.00;10.57;;;11.30;99.90;;;;;;5047158;28;20415;-72
2022/05/03 02:10:01;;;;;;;13.00;11.10;;;11.30;99.90;;;;;;5065840;28;20865;-71
2022/05/03 02:12:27;;;;;;;14.83;10.47;;;11.20;99.90;;;;;;5065871;28;20475;-71
2022/05/03 02:14:55;;;;;;;14.23;11.83;;;11.30;99.90;;;;;;5067296;28;20435;-70
2022/05/03 02:17:48;;;;;;;13.23;10.73;;;11.30;99.90;;;;;;5067165;28;20509;-71
2022/05/03 02:20:51;;;;;;;13.53;10.77;;;11.30;99.90;;;;;;5061361;28;20423;-71
2022/05/03 02:23:50;;;;;;;11.87;10.53;;;11.30;99.90;;;;;;5067061;28;20469;-71
2022/05/03 02:26:50;;;;;;;11.93;10.67;;;11.20;99.90;;;;;;5063692;28;20426;-72
2022/05/03 02:29:26;;;;;;;12.10;10.83;;;11.10;99.90;;;;;;5058719;28;20537;-72
2022/05/03 02:32:11;;;;;;;12.03;10.60;;;11.00;99.90;;;;;;5065893;28;20501;-71
2022/05/03 02:34:47;;;;;;;12.13;10.83;;;10.90;99.90;;;;;;5065070;28;20477;-71
2022/05/03 02:37:17;;;;;;;15.27;11.00;;;10.90;99.90;;;;;;5066715;28;20414;-71
2022/05/03 02:39:53;;;;;;;15.80;11.20;;;10.80;99.90;;;;;;5066871;28;20462;-71
2022/05/03 02:42:20;;;;;;;14.77;10.53;;;10.70;99.90;;;;;;5066562;28;20491;-72
2022/05/03 02:44:47;;;;;;;11.47;10.30;;;10.70;99.90;;;;;;5065590;28;20442;-71
2022/05/03 02:47:23;;;;;;;17.03;11.23;;;10.60;99.90;;;;;;5066351;28;20541;-71
2022/05/03 02:50:28;;;;;;;12.17;10.60;;;10.60;99.90;;;;;;5065850;28;20442;-71
2022/05/03 02:53:06;;;;;;;11.90;10.60;;;10.50;99.90;;;;;;5065064;28;20461;-72
2022/05/03 02:55:54;;;;;;;12.70;10.80;;;10.50;99.90;;;;;;5066076;28;20464;-71
2022/05/03 02:58:28;;;;;;;15.70;11.30;;;10.40;99.90;;;;;;5061654;28;20566;-71
2022/05/03 03:04:23;;;;;;;15.07;9.90;;;10.40;99.90;;;;;;5066541;28;20466;-71
2022/05/03 03:06:54;;;;;;;12.13;10.17;;;10.50;99.90;;;;;;5066666;28;20441;-71
2022/05/03 03:09:49;;;;;;;12.20;10.70;;;10.50;99.90;;;;;;5065194;28;20444;-70
2022/05/03 03:12:34;;;;;;;15.97;10.97;;;10.40;99.90;;;;;;5047679;28;20446;-71
2022/05/03 03:15:08;;;;;;;15.37;11.10;;;10.40;99.90;;;;;;5058201;28;20943;-71
2022/05/03 03:17:49;;;;;;;12.13;10.87;;;10.40;99.90;;;;;;5065085;28;21094;-71
2022/05/03 03:20:17;;;;;;;12.93;11.60;;;10.30;99.90;;;;;;5059394;28;20434;-71
2022/05/03 03:22:45;;;;;;;12.43;10.00;;;10.40;99.90;;;;;;5065390;28;20972;-71
2022/05/03 03:25:19;;;;;;;12.37;10.30;;;10.50;99.90;;;;;;5066451;28;20458;-71
2022/05/03 03:27:49;;;;;;;11.37;10.17;;;10.30;99.90;;;;;;5065862;28;20427;-71
2022/05/03 03:30:16;;;;;;;12.90;10.97;;;10.30;99.90;;;;;;5060306;28;21102;-72
2022/05/03 03:32:47;;;;;;;13.77;10.50;;;10.20;99.90;;;;;;5068306;28;20522;-71
2022/05/03 03:35:14;;;;;;;12.30;10.00;;;10.20;99.90;;;;;;5070303;28;20434;-71
2022/05/03 03:37:46;;;;;;;12.00;10.50;;;10.20;99.90;;;;;;5069701;28;20628;-71
2022/05/03 03:40:13;;;;;;;13.40;10.23;;;10.20;99.90;;;;;;5064173;28;21056;-71
2022/05/03 03:42:40;;;;;;;14.00;10.10;;;10.10;99.90;;;;;;5067477;28;20527;-70
2022/05/03 03:45:07;;;;;;;11.63;9.90;;;9.20;99.90;;;;;;5068366;28;20480;-71
2022/05/03 03:47:35;;;;;;;12.47;10.63;;;10.10;99.90;;;;;;5068322;28;20430;-70
2022/05/03 03:50:00;;;;;;;12.10;10.80;;;10.10;99.90;;;;;;5069020;28;20983;-72
2022/05/03 03:52:27;;;;;;;12.00;10.13;;;10.10;99.90;;;;;;5068189;28;20549;-71
2022/05/03 03:54:54;;;;;;;14.70;10.10;;;10.10;99.90;;;;;;5068230;28;20207;-71
2022/05/03 03:57:20;;;;;;;13.93;9.90;;;10.10;99.90;;;;;;5058588;28;20522;-72
2022/05/03 03:59:50;;;;;;;10.90;9.67;;;10.10;99.90;;;;;;5068720;28;20462;-72
2022/05/03 04:02:16;;;;;;;16.73;10.53;;;10.00;99.90;;;;;;5066812;28;20435;-71
2022/05/03 04:04:43;;;;;;;11.00;9.80;;;10.00;99.90;;;;;;5069732;28;20526;-71
2022/05/03 04:07:09;;;;;;;13.33;10.23;;;10.00;99.90;;;;;;5068784;28;20974;-72
2022/05/03 04:09:35;;;;;;;12.27;10.07;;;10.00;99.90;;;;;;5069845;28;20407;-71
2022/05/03 04:12:02;;;;;;;12.70;10.17;;;10.00;99.90;;;;;;5067808;28;20196;-71
2022/05/03 04:14:28;;;;;;;13.43;10.83;;;10.00;99.90;;;;;;5069148;28;20202;-71
2022/05/03 04:16:54;;;;;;;12.90;10.30;;;10.00;99.90;;;;;;5068408;28;20938;-71
2022/05/03 04:19:21;;;;;;;13.00;9.70;;;10.00;99.90;;;;;;5067874;28;20734;-70
2022/05/03 04:21:47;;;;;;;12.90;10.80;;;10.00;99.90;;;;;;5068391;28;20510;-72
2022/05/03 04:24:13;;;;;;;13.10;11.43;;;10.00;99.90;;;;;;5069159;28;20431;-71
2022/05/03 04:26:39;;;;;;;13.53;10.67;;;9.90;99.90;;;;;;5068809;28;20941;-70
2022/05/03 04:29:05;;;;;;;13.30;9.67;;;9.90;99.90;;;;;;5063169;28;20518;-72
2022/05/03 04:31:33;;;;;;;18.50;9.97;;;9.90;99.90;;;;;;5063372;28;20172;-71
2022/05/03 04:34:02;;;;;;;13.17;10.90;;;9.90;99.90;;;;;;5067373;28;20561;-71
2022/05/03 04:36:29;;;;;;;13.20;10.43;;;10.00;99.90;;;;;;5067313;28;20411;-70
2022/05/03 04:38:55;;;;;;;13.03;9.63;;;10.00;99.90;;;;;;5068349;28;20459;-71
2022/05/03 04:41:21;;;;;;;14.50;10.33;;;10.10;99.90;;;;;;5068669;28;20411;-72
2022/05/03 04:43:47;;;;;;;15.83;10.37;;;10.10;99.90;;;;;;5067009;28;20589;-72
2022/05/03 04:46:12;;;;;;;11.37;10.17;;;10.10;99.90;;;;;;5068203;28;20521;-72
2022/05/03 04:48:40;;;;;;;11.60;9.57;;;10.10;99.90;;;;;;5066701;28;20435;-71
2022/05/03 04:51:06;;;;;;;12.67;10.30;;;10.20;99.90;;;;;;5067827;28;20221;-71
2022/05/03 04:53:32;;;;;;;13.87;11.00;;;10.30;99.90;;;;;;5066635;28;20525;-70
2022/05/03 04:55:58;;;;;;;11.77;10.57;;;10.30;99.90;;;;;;5067870;28;20435;-71
2022/05/03 04:58:24;;;;;;;16.20;10.50;;;10.30;99.90;;;;;;5066251;28;20471;-72
2022/05/03 05:00:49;;;;;;;11.80;10.60;;;10.40;99.90;;;;;;5068149;28;20483;-71
2022/05/03 05:03:15;;;;;;;12.40;11.10;;;10.40;99.90;;;;;;5066148;28;20631;-70
2022/05/03 05:05:40;;;;;;;13.53;10.60;;;10.50;99.90;;;;;;5067734;28;20552;-71
2022/05/03 05:08:07;;;;;;;12.93;10.40;;;10.50;99.90;;;;;;5066815;28;20176;-71
2022/05/03 05:10:33;;;;;;;14.17;10.00;;;10.60;99.90;;;;;;5068295;28;20259;-71
2022/05/03 05:13:00;;;;;;;12.43;10.50;;;10.60;99.90;;;;;;5068460;28;20415;-71
2022/05/03 05:15:27;;;;;;;12.67;10.47;;;10.60;99.90;;;;;;5067655;28;20447;-71
2022/05/03 05:17:54;;;;;;;11.17;9.37;;;10.60;99.90;;;;;;5067747;28;20427;-71
2022/05/03 05:20:20;;;;;;;11.00;9.90;;;10.60;99.90;;;;;;5068020;28;20434;-72
2022/05/03 05:22:46;;;;;;;12.30;10.30;;;10.70;99.90;;;;;;5067018;28;20511;-71
2022/05/03 05:25:13;;;;;;;11.33;10.13;;;10.80;99.90;;;;;;5065441;28;20219;-71
2022/05/03 05:27:38;;;;;;;13.50;9.60;;;10.90;99.90;;;;;;5065748;28;20457;-72
2022/05/03 05:30:06;;;;;;;11.33;9.77;;;11.00;99.90;;;;;;5066132;28;20517;-71
2022/05/03 05:32:35;;;;;;;18.60;10.73;;;11.20;99.90;;;;;;5066738;28;20200;-72
2022/05/03 05:35:01;;;;;;;15.10;11.03;;;11.30;99.90;;;;;;5068065;28;20833;-72
2022/05/03 05:37:26;;;;;;;11.77;10.20;;;11.50;99.90;;;;;;5067667;28;20442;-72
2022/05/03 05:39:53;;;;;;;11.23;10.03;;;11.70;99.90;;;;;;5065789;28;20311;-71
2022/05/03 05:42:19;;;;;;;13.90;10.33;;;11.90;99.90;;;;;;5060540;28;20537;-72
2022/05/03 05:44:45;;;;;;;10.60;9.50;;;12.00;99.90;;;;;;5067402;28;20193;-71
2022/05/03 05:47:11;;;;;;;10.77;9.67;;;12.20;99.90;;;;;;5066780;28;20500;-72
2022/05/03 05:49:36;;;;;;;12.00;10.30;;;12.30;99.90;;;;;;5065681;28;20567;-71
2022/05/03 05:55:03;;;;;;;14.33;10.60;;;12.50;99.90;;;;;;5023437;28;20581;-71
2022/05/03 05:57:29;;;;;;;11.70;9.98;;;12.50;99.90;;;;;;5054702;28;20440;-72
2022/05/03 05:59:54;;;;;;;11.50;10.40;;;12.50;99.90;;;;;;5059520;28;20215;-71
2022/05/03 06:02:20;;;;;;;13.77;11.40;;;12.60;99.90;;;;;;5062700;28;20239;-71
2022/05/03 06:04:46;;;;;;;13.93;11.17;;;12.60;99.90;;;;;;5065692;28;20207;-71
2022/05/03 06:07:11;;;;;;;14.10;10.50;;;12.60;99.90;;;;;;5065973;28;20185;-72
2022/05/03 06:09:37;;;;;;;11.33;10.10;;;12.70;99.90;;;;;;5066797;28;20180;-70
2022/05/03 06:12:03;;;;;;;12.53;11.00;;;12.70;99.90;;;;;;5067264;28;20169;-71
2022/05/03 06:14:28;;;;;;;19.00;11.13;;;12.80;99.90;;;;;;5066153;28;20200;-71
2022/05/03 06:16:56;;;;;;;12.60;10.37;;;12.90;99.90;;;;;;5066336;28;20947;-71
2022/05/03 06:19:22;;;;;;;11.73;10.53;;;12.90;99.90;;;;;;5065227;28;20212;-71
2022/05/03 06:21:49;;;;;;;16.70;11.70;;;13.10;99.90;;;;;;5067369;28;20889;-71
2022/05/03 06:24:15;;;;;;;13.93;11.13;;;13.10;99.90;;;;;;5064698;28;20482;-75
2022/05/03 06:26:40;;;;;;;12.70;11.00;;;13.20;99.90;;;;;;5065088;28;20554;-73
2022/05/03 06:29:08;;;;;;;16.00;12.33;;;13.40;99.90;;;;;;5063680;28;20511;-72
2022/05/03 06:31:35;;;;;;;13.20;11.30;;;13.30;99.90;;;;;;5057695;28;20173;-72
2022/05/03 06:34:01;;;;;;;14.90;11.70;;;13.50;99.90;;;;;;5066598;28;20469;-73
2022/05/03 06:36:27;;;;;;;13.37;11.97;;;13.70;99.90;;;;;;5069561;28;20437;-72
2022/05/03 06:38:52;;;;;;;19.70;12.70;;;13.90;99.90;;;;;;5065067;28;20230;-73
2022/05/03 06:41:18;;;;;;;14.90;11.87;;;14.00;99.90;;;;;;5066341;28;20172;-73
2022/05/03 06:43:44;;;;;;;17.83;12.57;;;14.30;99.90;;;;;;5061088;28;20507;-72
2022/05/03 06:46:10;;;;;;;13.80;12.40;;;14.50;99.90;;;;;;5065075;28;20268;-72
2022/05/03 06:48:36;;;;;;;14.57;12.60;;;14.80;99.90;;;;;;5064213;28;20562;-72
2022/05/03 06:51:02;;;;;;;15.50;13.20;;;15.40;99.90;;;;;;5065787;28;20422;-71
2022/05/03 06:53:28;;;;;;;15.13;13.00;;;15.30;99.90;;;;;;5066999;28;20265;-72
2022/05/03 06:55:53;;;;;;;23.10;13.60;;;15.60;99.90;;;;;;5065106;28;20480;-72
2022/05/03 06:58:19;;;;;;;18.40;13.50;;;15.60;99.90;;;;;;5064077;28;20212;-72
2022/05/03 07:00:44;;;;;;;19.17;15.37;;;15.80;99.90;;;;;;5064642;28;20244;-72
2022/05/03 07:03:10;;;;;;;22.63;15.07;;;16.30;99.90;;;;;;5065005;28;20283;-72
2022/05/03 07:05:35;;;;;;;19.27;15.77;;;16.10;99.90;;;;;;5060344;28;20197;-70
2022/05/03 07:08:01;;;;;;;24.30;16.30;;;16.20;99.90;;;;;;5053812;28;20632;-70
2022/05/03 07:10:27;;;;;;;17.50;15.30;;;16.30;99.90;;;;;;5061839;28;20267;-71
2022/05/03 07:12:52;;;;;;;19.30;14.30;;;16.30;99.90;;;;;;5067208;28;20176;-72
2022/05/03 07:15:21;;;;;;;17.40;15.60;;;16.30;99.90;;;;;;5065038;28;20672;-72
2022/05/03 07:23:16;;;;;;;22.50;17.73;;;16.80;99.90;;;;;;5067659;28;20608;-70
2022/05/03 07:25:44;;;;;;;19.07;17.07;;;16.90;99.90;;;;;;5069176;28;20548;-71
2022/05/03 07:28:10;;;;;;;20.20;17.03;;;17.00;99.90;;;;;;5067417;28;20215;-69
2022/05/03 07:30:36;;;;;;;26.60;16.77;;;17.30;99.90;;;;;;5069616;28;20450;-71
2022/05/03 07:33:02;;;;;;;19.20;16.47;;;17.50;99.90;;;;;;5067312;28;20220;-71
2022/05/03 07:35:27;;;;;;;20.73;18.50;;;17.60;99.90;;;;;;5066957;28;21097;-71
2022/05/03 07:37:53;;;;;;;24.17;19.67;;;17.60;99.90;;;;;;5067145;28;20703;-72
2022/05/03 07:40:18;;;;;;;24.07;17.43;;;17.60;99.90;;;;;;5064162;28;20659;-72
2022/05/03 07:42:44;;;;;;;20.90;17.80;;;18.00;97.30;;;;;;5062233;28;20647;-71
2022/05/03 07:45:10;;;;;;;30.60;19.50;;;18.30;96.60;;;;;;5069519;28;20192;-72
2022/05/03 07:47:36;;;;;;;22.70;18.63;;;18.60;96.10;;;;;;5060673;28;20445;-70
2022/05/03 07:50:03;;;;;;;29.50;18.70;;;19.10;92.60;;;;;;5067636;28;20185;-71
2022/05/03 07:52:29;;;;;;;21.27;18.97;;;19.50;92.30;;;;;;5068801;28;20630;-72
2022/05/03 07:54:55;;;;;;;22.20;18.20;;;19.80;79.70;;;;;;5069245;28;20473;-72
2022/05/03 07:57:21;;;;;;;24.97;19.43;;;19.80;83.40;;;;;;5067341;28;20236;-71
2022/05/03 07:59:46;;;;;;;21.57;17.83;;;20.10;75.80;;;;;;5059925;28;20563;-71
2022/05/03 08:02:12;;;;;;;20.40;18.20;;;20.40;71.70;;;;;;5062946;28;20181;-72
2022/05/03 08:04:39;;;;;;;20.70;18.50;;;20.60;63.40;;;;;;5065309;28;20281;-71
2022/05/03 08:07:05;;;;;;;21.07;17.93;;;20.60;63.90;;;;;;5065010;28;20717;-73
2022/05/03 08:09:32;;;;;;;21.50;17.90;;;21.00;57.60;;;;;;5068926;28;20542;-72
2022/05/03 08:12:00;;;;;;;21.77;18.00;;;21.50;55.70;;;;;;5069111;28;20221;-72
2022/05/03 08:14:27;;;;;;;21.17;17.20;;;21.80;51.20;;;;;;5068908;28;20515;-71
2022/05/03 08:16:53;;;;;;;20.33;18.17;;;22.60;48.60;;;;;;5068762;28;20421;-72
2022/05/03 08:19:18;;;;;;;21.27;17.83;;;23.60;49.40;;;;;;5069531;28;20470;-72
2022/05/03 08:21:44;;;;;;;18.93;16.90;;;24.40;49.70;;;;;;5068031;28;20186;-72
2022/05/03 08:24:10;;;;;;;19.47;15.70;;;25.30;40.10;;;;;;5068577;28;20199;-72
2022/05/03 08:26:35;;;;;;;18.73;15.80;;;26.10;32.70;;;;;;5069599;28;20521;-72
2022/05/03 08:29:01;;;;;;;19.23;16.00;;;26.80;25.40;;;;;;5066238;28;20176;-72
2022/05/03 08:31:27;;;;;;;17.80;14.63;;;27.10;26.10;;;;;;5067301;28;20176;-73
2022/05/03 08:33:52;;;;;;;17.50;15.70;;;27.60;21.90;;;;;;5068817;28;20270;-73
2022/05/03 08:36:18;;;;;;;18.33;16.13;;;28.10;15.80;;;;;;5070202;28;20259;-73
2022/05/03 08:44:12;;;;;;;16.70;14.98;;;29.40;10.00;;;;;;5068683;28;20620;-73
2022/05/03 08:46:39;;;;;;;16.27;14.70;;;29.70;6.60;;;;;;5067681;28;20622;-73
2022/05/03 08:49:07;;;;;;;16.05;14.45;;;29.50;6.70;;;;;;5067350;28;20553;-73
2022/05/03 08:51:33;;;;;;;16.20;14.55;;;29.40;7.40;;;;;;5068349;28;20184;-73
2022/05/03 08:54:00;;;;;;;17.55;14.95;;;30.20;1.90;;;;;;5069475;28;20646;-73
2022/05/03 08:56:26;;;;;;;17.38;15.55;;;31.00;1.00;;;;;;5068450;28;20211;-73
2022/05/03 08:58:52;;;;;;;15.88;14.27;;;31.50;1.00;;;;;;5066542;28;20230;-73
2022/05/03 09:01:18;;;;;;;18.38;16.15;;;31.90;1.00;;;;;;5068067;28;20180;-73
2022/05/03 09:03:44;;;;;;;17.80;16.00;;;32.10;1.00;;;;;;5064057;28;20177;-73
2022/05/03 09:06:10;;;;;;;17.83;16.08;;;31.80;1.00;;;;;;5061276;28;20172;-72
2022/05/03 09:08:36;;;;;;;16.30;14.73;;;31.20;1.00;;;;;;5066962;28;20311;-76
2022/05/03 09:11:15;;;;;;;18.42;15.20;;;30.50;1.00;;;;;;5066099;28;20678;-72
2022/05/03 09:13:42;;;;;;;21.58;16.05;;;30.20;1.00;;;;;;5069503;28;20175;-72
2022/05/03 09:16:13;;;;;;;16.65;14.93;;;30.20;1.00;;;;;;5062472;28;20171;-73
2022/05/03 09:18:40;;;;;;;16.73;14.93;;;30.20;1.00;;;;;;5067849;28;20204;-73
2022/05/03 09:24:07;;;;;;;16.45;14.85;;;31.00;1.00;;;;;;5061844;28;20283;-73
2022/05/03 09:26:33;;;;;;;15.65;14.15;;;32.00;1.00;;;;;;5065979;28;20259;-73
2022/05/03 09:29:09;;;;;;;17.25;15.50;;;32.90;1.00;;;;;;5066388;28;20176;-74
2022/05/03 09:31:43;;;;;;;16.55;14.82;;;32.70;1.00;;;;;;5066963;28;20175;-74
2022/05/03 09:34:22;;;;;;;15.75;14.15;;;31.70;1.00;;;;;;5069090;28;20195;-73
2022/05/03 09:36:58;;;;;;;15.00;13.50;;;31.10;1.00;;;;;;5068748;28;20179;-73
2022/05/03 09:39:32;;;;;;;16.77;14.13;;;30.90;1.00;;;;;;5066274;28;20207;-73
2022/05/03 09:42:14;;;;;;;15.73;12.60;;;30.50;1.00;;;;;;5067662;28;20164;-72
2022/05/03 09:44:53;;;;;;;17.58;14.32;;;30.80;1.00;;;;;;5062033;28;20826;-72
2022/05/03 09:47:40;;;;;;;14.73;13.32;;;31.10;1.00;;;;;;5068080;28;20199;-73
2022/05/03 09:50:06;;;;;;;14.88;13.27;;;31.30;1.00;;;;;;5065186;28;20559;-73
2022/05/03 09:52:37;;;;;;;14.27;12.70;;;32.10;1.00;;;;;;5066292;28;20176;-72
2022/05/03 09:55:08;;;;;;;14.98;13.55;;;33.50;1.00;;;;;;5062950;28;20226;-72
2022/05/03 09:57:36;;;;;;;18.67;12.30;;;34.30;1.00;;;;;;5065448;28;20176;-72
2022/05/03 10:00:07;;;;;;;14.65;12.40;;;33.50;1.00;;;;;;5066448;28;20254;-72
2022/05/03 10:02:33;;;;;;;13.10;11.90;;;33.60;1.00;;;;;;5065341;28;20180;-72
2022/05/03 10:04:59;;;;;;;13.52;12.10;;;34.60;1.00;;;;;;5068798;28;20180;-72
2022/05/03 10:07:26;;;;;;;14.30;12.80;;;35.40;1.00;;;;;;5066456;28;20346;-73
2022/05/03 10:09:52;;;;;;;13.52;12.13;;;35.10;1.00;;;;;;5067557;28;20245;-73
2022/05/03 10:12:19;;;;;;;13.27;12.00;;;35.60;1.00;;;;;;5067661;28;20187;-73
2022/05/03 10:14:46;;;;;;;13.60;12.15;;;35.60;1.00;;;;;;5068008;28;20275;-72
2022/05/03 10:22:42;;;;;;;15.10;13.23;;;33.70;1.00;;;;;;5068065;28;20175;-71
2022/05/03 10:25:08;;;;;;;14.98;13.48;;;34.10;1.00;;;;;;5057746;28;20191;-73
2022/05/03 10:27:54;;;;;;;15.98;12.88;;;34.00;1.00;;;;;;5067825;28;20168;-73
2022/05/03 10:30:22;;;;;;;17.88;12.63;;;33.60;1.00;;;;;;5058000;28;20237;-73
2022/05/03 10:33:19;;;;;;;15.45;13.32;;;33.80;1.00;;;;;;5054735;28;20183;-72
2022/05/03 10:35:46;;;;;;;13.38;12.07;;;34.70;1.00;;;;;;5061552;28;20211;-72
2022/05/03 10:38:12;;;;;;;15.02;13.40;;;35.50;1.00;;;;;;5057973;28;20171;-72
2022/05/03 10:40:48;;;;;;;13.10;11.50;;;36.70;1.00;;;;;;5061062;28;20255;-72
2022/05/03 10:43:25;;;;;;;14.20;12.70;;;37.50;1.00;;;;;;5068504;28;20228;-72
2022/05/03 10:45:53;;;;;;;13.10;11.23;;;37.10;1.00;;;;;;5067978;28;20198;-73
2022/05/03 10:48:29;;;;;;;12.10;10.82;;;36.40;1.00;;;;;;5069043;28;20195;-73
2022/05/03 10:51:03;;;;;;;12.95;11.70;;;35.90;1.00;;;;;;5068888;28;20204;-72
2022/05/03 10:53:41;;;;;;;12.02;10.18;;;36.10;1.00;;;;;;5069548;28;20184;-73
2022/05/03 10:56:08;;;;;;;11.55;10.45;;;36.70;1.00;;;;;;5066917;28;20179;-72
2022/05/03 10:58:36;;;;;;;11.00;9.90;;;37.20;1.00;;;;;;5070473;28;20249;-73
2022/05/03 11:01:21;;;;;;;12.23;10.15;;;37.30;1.00;;;;;;5076474;28;20258;-73
2022/05/03 11:03:47;;;;;;;9.77;8.85;;;37.70;1.00;;;;;;5067936;28;20172;-73
2022/05/03 11:06:18;;;;;;;13.02;9.93;;;37.70;1.00;;;;;;5062635;28;20350;-72
2022/05/03 11:09:08;;;;;;;10.25;9.18;;;37.90;1.00;;;;;;5067443;28;20638;-72
2022/05/03 11:11:42;;;;;;;13.25;9.75;;;38.00;1.00;;;;;;5064091;28;20182;-72
2022/05/03 11:14:20;;;;;;;10.50;9.23;;;37.90;1.00;;;;;;5063838;28;20195;-72
2022/05/03 11:17:05;;;;;;;12.13;9.40;;;37.30;1.00;;;;;;5069097;28;20297;-71
2022/05/03 11:19:37;;;;;;;10.68;9.48;;;36.90;1.00;;;;;;5065099;28;20201;-72
2022/05/03 11:22:11;;;;;;;11.23;10.23;;;37.30;1.00;;;;;;5066921;28;20518;-72
2022/05/03 11:24:44;;;;;;;13.45;10.32;;;37.70;1.00;;;;;;5068571;28;20207;-72
2022/05/03 11:27:11;;;;;;;13.50;10.45;;;37.40;1.00;;;;;;5064919;28;20240;-73
2022/05/03 11:29:41;;;;;;;11.50;10.40;;;38.00;1.00;;;;;;5067838;28;20283;-73
2022/05/03 11:32:08;;;;;;;10.35;9.35;;;38.60;1.00;;;;;;5065194;28;20178;-72
2022/05/03 11:34:34;;;;;;;10.50;9.50;;;39.60;1.00;;;;;;5069211;28;20204;-73
2022/05/03 11:37:01;;;;;;;11.18;9.93;;;39.40;1.00;;;;;;5068932;28;20229;-72
2022/05/03 11:39:27;;;;;;;12.88;9.90;;;39.00;1.00;;;;;;5069589;28;20674;-73
2022/05/03 11:41:53;;;;;;;14.93;9.65;;;38.90;1.00;;;;;;5069491;28;20182;-74
2022/05/03 11:44:18;;;;;;;10.20;9.10;;;39.20;1.00;;;;;;5070084;28;20328;-73
2022/05/03 11:46:47;;;;;;;9.52;8.20;;;39.10;1.00;;;;;;5067970;28;20430;-74
2022/05/03 11:49:14;;;;;;;8.60;7.70;;;38.90;1.00;;;;;;5068318;28;20222;-74
2022/05/03 11:57:15;;;;;;;11.70;7.32;;;40.60;1.00;;;;;;5066157;28;20219;-75
2022/05/03 11:59:42;;;;;;;9.82;6.70;;;40.60;1.00;;;;;;5066684;28;20203;-74
2022/05/03 12:02:20;;;;;;;9.07;8.05;;;40.20;1.00;;;;;;5063335;28;20630;-74
2022/05/03 12:05:04;;;;;;;9.52;7.72;;;40.40;1.00;;;;;;5066336;28;20369;-74
2022/05/03 12:07:41;;;;;;;7.70;6.43;;;38.70;1.00;;;;;;5064419;28;20176;-74
2022/05/03 12:10:27;;;;;;;7.97;5.80;;;36.80;1.00;;;;;;5063509;28;20175;-73
2022/05/03 12:13:13;;;;;;;7.05;6.35;;;34.80;1.00;;;;;;5066885;28;20196;-75
2022/05/03 12:15:47;;;;;;;6.10;5.50;;;35.00;1.00;;;;;;5063303;28;20279;-73
2022/05/03 12:18:17;;;;;;;7.80;7.03;;;36.50;1.00;;;;;;5062948;28;20180;-73
2022/05/03 12:20:54;;;;;;;7.07;6.38;;;36.90;1.00;;;;;;5064220;28;20192;-74
2022/05/03 12:23:35;;;;;;;6.78;6.10;;;35.10;1.00;;;;;;5065907;28;20207;-74
2022/05/03 12:26:22;;;;;;;7.13;6.43;;;32.90;1.00;;;;;;5062529;28;20645;-73
2022/05/03 12:28:51;;;;;;;8.80;7.90;;;31.70;1.00;;;;;;5062092;28;20523;-73
2022/05/03 12:31:18;;;;;;;8.05;7.25;;;31.30;1.00;;;;;;5063745;28;20260;-73
2022/05/03 12:33:55;;;;;;;7.63;6.93;;;30.50;1.00;;;;;;5064346;28;20298;-72
2022/05/03 12:36:34;;;;;;;7.75;6.72;;;32.10;1.00;;;;;;5063908;28;20203;-74
2022/05/03 12:39:20;;;;;;;6.60;5.90;;;34.80;1.00;;;;;;5066064;28;20199;-73
2022/05/03 12:41:56;;;;;;;6.32;5.72;;;37.10;1.00;;;;;;5063240;28;20274;-74
2022/05/03 12:44:23;;;;;;;6.53;5.82;;;38.80;1.00;;;;;;5066062;28;20196;-73
2022/05/03 12:46:50;;;;;;;7.35;5.28;;;39.80;1.00;;;;;;5060158;28;20251;-74
2022/05/03 12:49:16;;;;;;;7.00;5.40;;;39.80;1.00;;;;;;5062559;28;20286;-73
2022/05/03 12:51:47;;;;;;;5.97;5.30;;;39.80;1.00;;;;;;5064520;28;20247;-73
2022/05/03 12:54:13;;;;;;;6.78;4.93;;;40.30;1.00;;;;;;5062508;28;20272;-73
2022/05/03 12:59:24;;;;;;;5.72;4.85;;;40.60;1.00;;;;;;5061986;28;20264;-72
2022/05/03 13:01:51;;;;;;;6.32;4.90;;;41.10;1.00;;;;;;5063223;28;20363;-73
2022/05/03 13:04:17;;;;;;;4.90;4.40;;;41.60;1.00;;;;;;5056731;28;20206;-73
2022/05/03 13:06:44;;;;;;;6.55;3.90;;;42.00;1.00;;;;;;5062439;28;20191;-73
2022/05/03 13:09:10;;;;;;;5.57;3.70;;;40.40;1.00;;;;;;5063547;28;20258;-72
2022/05/03 13:11:38;;;;;;;4.50;4.10;;;37.60;1.00;;;;;;5064859;28;20184;-73
2022/05/03 13:14:05;;;;;;;5.00;4.50;;;35.40;1.00;;;;;;5060626;28;20505;-71
2022/05/03 13:16:30;;;;;;;5.30;4.65;;;34.00;1.00;;;;;;5064637;28;20350;-73
2022/05/03 13:18:55;;;;;;;6.95;4.97;;;35.40;1.00;;;;;;5064244;28;20282;-72
2022/05/03 13:21:22;;;;;;;4.95;4.30;;;37.40;1.00;;;;;;5063841;28;20631;-73
2022/05/03 13:23:48;;;;;;;5.50;4.07;;;38.60;1.00;;;;;;5063135;28;20275;-73
2022/05/03 13:26:14;;;;;;;4.18;3.78;;;39.40;1.00;;;;;;5064267;28;20259;-74
2022/05/03 13:28:40;;;;;;;4.35;3.67;;;39.30;1.00;;;;;;5062227;28;20195;-73